Time;durP1;ratioP1;P1;durP2;ratioP2;P2;SDS_P1;SDS_P2;PMS_P1;PMS_P2;Temp;Humidity;BMP_temperature;BMP_pressure;BME280_temperature;BME280_humidity;BME280_pressure;Samples;Min_cycle;Max_cycle;Signal;HPM_P1;HPM_P2
2022/04/21 00:01:03;;;;;;;22.10;13.50;;;;;;;3.45;66.33;99692.72;4447980;32;33756;-59
2022/04/21 00:03:31;;;;;;;21.15;12.37;;;;;;;3.44;66.65;99675.56;4447008;32;34207;-59
2022/04/21 00:05:58;;;;;;;23.00;13.32;;;;;;;3.47;66.75;99688.59;4447152;32;33468;-59
2022/04/21 00:08:26;;;;;;;22.27;13.43;;;;;;;3.27;67.30;99688.09;4446448;32;32353;-59
2022/04/21 00:10:54;;;;;;;21.48;11.95;;;;;;;3.24;67.32;99687.84;4447374;32;34184;-59
2022/04/21 00:13:21;;;;;;;22.08;12.45;;;;;;;3.35;66.72;99676.72;4446378;32;34282;-59
2022/04/21 00:15:49;;;;;;;21.00;13.23;;;;;;;4.04;64.04;99670.41;4447028;32;34516;-59
2022/04/21 00:18:16;;;;;;;21.77;13.18;;;;;;;4.90;61.74;99676.09;4446006;32;33910;-59
2022/04/21 00:20:44;;;;;;;21.77;13.68;;;;;;;4.44;61.89;99680.78;4447352;32;34184;-59
2022/04/21 00:23:27;;;;;;;20.37;12.10;;;;;;;3.85;64.43;99677.59;4446595;32;33927;-59
2022/04/21 00:26:01;;;;;;;20.45;13.25;;;;;;;3.93;64.06;99671.34;4446669;32;34578;-59
2022/04/21 00:28:29;;;;;;;19.73;11.75;;;;;;;4.14;63.40;99675.34;4433186;32;33603;-59
2022/04/21 00:30:57;;;;;;;20.25;12.65;;;;;;;4.19;63.49;99674.78;4433162;32;33483;-59
2022/04/21 00:33:25;;;;;;;22.48;12.93;;;;;;;4.12;63.63;99669.25;4433101;32;33826;-59
2022/04/21 00:35:52;;;;;;;24.02;12.52;;;;;;;4.47;62.71;99668.16;4446762;32;34335;-59
2022/04/21 00:38:21;;;;;;;19.80;12.43;;;;;;;4.42;62.90;99664.38;4447806;32;33909;-59
2022/04/21 00:40:49;;;;;;;19.75;12.40;;;;;;;5.53;59.76;99671.53;4450492;32;34157;-59
2022/04/21 00:43:17;;;;;;;23.65;12.90;;;;;;;6.12;57.33;99659.69;4450235;32;33483;-59
2022/04/21 00:45:47;;;;;;;21.85;13.18;;;;;;;4.23;63.14;99672.53;4449171;32;34880;-59
2022/04/21 00:48:15;;;;;;;21.42;12.75;;;;;;;3.88;64.69;99668.47;4436324;32;34634;-59
2022/04/21 00:50:42;;;;;;;21.37;12.50;;;;;;;4.20;63.14;99671.44;4434261;32;33777;-59
2022/04/21 00:53:10;;;;;;;24.35;13.45;;;;;;;4.26;62.90;99670.16;4452049;32;33622;-59
2022/04/21 00:55:39;;;;;;;33.20;15.73;;;;;;;4.52;62.74;99661.66;4448094;32;34037;-59
2022/04/21 00:58:07;;;;;;;23.52;14.05;;;;;;;4.01;64.01;99665.03;4439116;32;33611;-59
2022/04/21 01:00:35;;;;;;;21.65;13.55;;;;;;;4.32;62.55;99662.00;4449673;32;33783;-59
2022/04/21 01:03:05;;;;;;;22.37;12.90;;;;;;;3.91;64.41;99663.53;4450751;32;33317;-59
2022/04/21 01:05:33;;;;;;;23.80;13.00;;;;;;;3.78;64.77;99667.72;4450484;32;33577;-59
2022/04/21 01:08:05;;;;;;;20.58;12.48;;;;;;;3.50;65.83;99663.22;4411600;32;32370;-59
2022/04/21 01:10:37;;;;;;;21.35;13.00;;;;;;;3.25;66.92;99666.59;4450400;32;33732;-59
2022/04/21 01:13:06;;;;;;;22.70;12.77;;;;;;;3.23;67.41;99667.28;4450631;32;34322;-59
2022/04/21 01:15:39;;;;;;;23.65;13.05;;;;;;;3.24;67.34;99672.50;4453241;32;33873;-59
2022/04/21 01:18:07;;;;;;;22.85;13.07;;;;;;;3.39;67.13;99674.38;4453402;32;32949;-59
2022/04/21 01:20:34;;;;;;;20.92;12.82;;;;;;;3.38;67.23;99667.47;4451319;32;32732;-59
2022/04/21 01:23:02;;;;;;;21.05;12.82;;;;;;;3.28;67.47;99661.72;4451927;32;33621;-59
2022/04/21 01:25:39;;;;;;;21.87;12.77;;;;;;;3.08;68.44;99662.84;4452089;32;34553;-59
2022/04/21 01:28:08;;;;;;;21.37;12.93;;;;;;;3.09;68.59;99658.59;4439999;32;33910;-59
2022/04/21 01:30:36;;;;;;;21.55;12.90;;;;;;;3.13;68.27;99665.75;4428070;32;32661;-59
2022/04/21 01:33:04;;;;;;;22.05;13.27;;;;;;;2.75;69.45;99666.41;4452940;32;33808;-59
2022/04/21 01:35:31;;;;;;;24.55;13.15;;;;;;;2.62;69.91;99658.59;4452508;32;33875;-59
2022/04/21 01:43:31;;;;;;;23.75;12.70;;;;;;;2.87;69.15;99658.72;4452149;32;34090;-59
2022/04/21 01:45:59;;;;;;;25.88;14.52;;;;;;;2.68;70.00;99664.16;4424926;32;34468;-59
2022/04/21 01:48:27;;;;;;;26.35;13.98;;;;;;;2.48;70.29;99655.91;4451640;32;34020;-58
2022/04/21 01:50:55;;;;;;;22.25;13.38;;;;;;;2.32;71.29;99655.56;4439493;32;33673;-59
2022/04/21 01:53:22;;;;;;;24.08;14.52;;;;;;;2.59;70.43;99655.81;4451103;32;33434;-58
2022/04/21 01:55:51;;;;;;;25.92;13.60;;;;;;;2.61;70.22;99656.81;4453835;32;34549;-59
2022/04/21 01:58:19;;;;;;;27.60;14.87;;;;;;;2.72;69.61;99655.94;4452785;32;33898;-59
2022/04/21 02:00:46;;;;;;;23.55;13.27;;;;;;;2.54;69.84;99658.03;4451229;32;34024;-59
2022/04/21 02:03:14;;;;;;;22.30;13.32;;;;;;;2.55;70.24;99647.94;4453459;32;34227;-59
2022/04/21 02:05:42;;;;;;;24.70;13.50;;;;;;;2.98;68.68;99649.28;4436439;32;32445;-59
2022/04/21 02:08:09;;;;;;;23.80;13.62;;;;;;;2.81;68.77;99651.50;4435293;32;34484;-59
2022/04/21 02:10:37;;;;;;;22.90;13.50;;;;;;;2.57;69.88;99640.38;4450611;32;33984;-58
2022/04/21 02:13:05;;;;;;;23.15;13.27;;;;;;;2.59;69.86;99653.25;4452132;32;33396;-59
2022/04/21 02:15:33;;;;;;;22.62;13.48;;;;;;;2.41;70.56;99638.31;4452506;32;34521;-59
2022/04/21 02:18:01;;;;;;;24.92;14.50;;;;;;;2.72;69.87;99635.47;4451433;32;32621;-59
2022/04/21 02:20:29;;;;;;;25.23;13.85;;;;;;;2.86;69.05;99639.94;4450124;32;34296;-59
2022/04/21 02:22:56;;;;;;;24.50;14.10;;;;;;;2.86;69.26;99629.72;4437355;32;34317;-59
2022/04/21 02:25:24;;;;;;;23.23;13.23;;;;;;;2.98;68.83;99633.94;4450857;32;34617;-59
2022/04/21 02:27:52;;;;;;;24.77;14.00;;;;;;;3.03;69.36;99637.69;4435608;32;33942;-59
2022/04/21 02:30:19;;;;;;;23.58;13.05;;;;;;;3.31;68.78;99631.19;4436971;32;34537;-59
2022/04/21 02:32:47;;;;;;;23.10;14.07;;;;;;;3.01;69.25;99629.00;4452074;32;33550;-59
2022/04/21 02:35:16;;;;;;;22.73;13.27;;;;;;;2.99;69.61;99638.25;4452741;32;35047;-59
2022/04/21 02:37:45;;;;;;;23.23;13.60;;;;;;;2.97;69.24;99637.25;4453754;32;33639;-59
2022/04/21 02:40:14;;;;;;;21.25;12.90;;;;;;;3.02;68.84;99636.81;4454277;32;34795;-59
2022/04/21 02:42:42;;;;;;;23.35;13.43;;;;;;;3.00;69.13;99633.25;4452097;32;34345;-59
2022/04/21 02:45:11;;;;;;;27.80;14.98;;;;;;;3.17;68.07;99626.78;4454408;32;33816;-59
2022/04/21 02:47:41;;;;;;;23.08;13.80;;;;;;;3.32;67.53;99617.63;4451433;32;34573;-59
2022/04/21 02:50:11;;;;;;;22.77;14.13;;;;;;;3.03;68.86;99637.69;4436100;32;33738;-59
2022/04/21 02:52:40;;;;;;;27.37;16.50;;;;;;;2.83;69.26;99638.81;4438709;32;34237;-59
2022/04/21 02:57:56;;;;;;;24.55;15.18;;;;;;;2.93;69.05;99631.91;4438070;32;35298;-59
2022/04/21 03:00:24;;;;;;;26.65;14.48;;;;;;;2.90;69.10;99633.38;4450686;32;34157;-59
2022/04/21 03:02:51;;;;;;;26.48;15.10;;;;;;;2.62;70.15;99627.91;4434866;32;33133;-59
2022/04/21 03:05:19;;;;;;;28.85;16.27;;;;;;;2.35;71.20;99623.41;4437174;32;33877;-59
2022/04/21 03:07:47;;;;;;;28.70;15.90;;;;;;;2.24;71.87;99633.63;4449568;32;34783;-58
2022/04/21 03:10:14;;;;;;;24.17;14.13;;;;;;;2.38;71.33;99633.00;4451299;32;32715;-59
2022/04/21 03:12:42;;;;;;;28.87;15.85;;;;;;;2.22;71.98;99627.50;4435450;32;34524;-59
2022/04/21 03:15:11;;;;;;;29.52;17.35;;;;;;;2.25;72.13;99628.63;4452018;32;33827;-59
2022/04/21 03:17:41;;;;;;;29.85;15.02;;;;;;;2.60;70.57;99630.34;4449579;32;33559;-59
2022/04/21 03:24:19;;;;;;;30.52;17.10;;;;;;;2.43;70.84;99630.78;4446458;32;33367;-59
2022/04/21 03:25:44;;;;;;;23.92;15.68;;;;;;;2.85;69.40;99625.34;4448953;32;33638;-59
2022/04/21 03:28:12;;;;;;;28.25;14.68;;;;;;;2.86;68.37;99629.72;4434924;32;33701;-59
2022/04/21 03:30:40;;;;;;;24.23;14.43;;;;;;;2.75;69.20;99635.72;4449042;32;34313;-59
2022/04/21 03:33:07;;;;;;;25.10;13.93;;;;;;;3.07;67.72;99627.81;4450160;32;35423;-59
2022/04/21 03:35:35;;;;;;;26.92;13.45;;;;;;;2.93;68.52;99631.03;4433461;32;34447;-59
2022/04/21 03:38:02;;;;;;;25.08;13.65;;;;;;;3.19;67.84;99630.34;4449508;32;34531;-59
2022/04/21 03:40:30;;;;;;;23.85;13.60;;;;;;;3.39;66.78;99628.28;4434589;32;33538;-59
2022/04/21 03:42:58;;;;;;;27.70;13.77;;;;;;;4.06;64.62;99621.81;4446899;32;33826;-59
2022/04/21 03:45:25;;;;;;;23.83;13.55;;;;;;;3.29;66.77;99630.19;4449336;32;34442;-59
2022/04/21 03:47:53;;;;;;;23.70;14.20;;;;;;;2.79;68.91;99634.28;4447753;32;34792;-59
2022/04/21 03:50:20;;;;;;;23.80;14.02;;;;;;;2.75;69.40;99636.59;4449702;32;34092;-59
2022/04/21 03:52:48;;;;;;;22.30;13.02;;;;;;;2.85;69.28;99635.59;4447423;32;34390;-59
2022/04/21 03:55:16;;;;;;;22.65;12.98;;;;;;;2.93;68.83;99626.78;4449414;32;34052;-59
2022/04/21 03:57:43;;;;;;;22.58;13.32;;;;;;;4.15;64.98;99622.41;4448736;32;33320;-59
2022/04/21 04:00:11;;;;;;;23.87;13.77;;;;;;;3.72;65.76;99628.06;4447858;32;34425;-59
2022/04/21 04:02:39;;;;;;;24.98;13.43;;;;;;;3.15;67.80;99648.81;4450205;32;33722;-59
2022/04/21 04:05:06;;;;;;;22.77;13.80;;;;;;;3.15;67.65;99642.03;4450591;32;34313;-59
2022/04/21 04:13:06;;;;;;;26.85;14.90;;;;;;;2.76;69.86;99657.94;4453075;32;33709;-59
2022/04/21 04:15:33;;;;;;;29.65;15.20;;;;;;;2.88;69.38;99653.72;4453188;32;33909;-59
2022/04/21 04:18:01;;;;;;;27.83;15.25;;;;;;;2.94;69.26;99658.41;4452003;32;34765;-59
2022/04/21 04:20:28;;;;;;;33.60;15.52;;;;;;;2.93;69.36;99654.94;4437692;32;32547;-59
2022/04/21 04:22:56;;;;;;;25.55;13.93;;;;;;;3.01;69.08;99654.59;4445797;32;32393;-59
2022/04/21 04:25:24;;;;;;;28.08;14.55;;;;;;;4.61;63.87;99645.09;4449361;32;34003;-59
2022/04/21 04:27:51;;;;;;;24.35;14.02;;;;;;;3.12;68.03;99653.72;4449273;32;33840;-59
2022/04/21 04:30:25;;;;;;;25.90;14.60;;;;;;;2.73;69.50;99660.28;4450448;32;34423;-59
2022/04/21 04:32:52;;;;;;;27.02;14.18;;;;;;;2.93;69.03;99657.50;4449969;32;33574;-59
2022/04/21 04:35:21;;;;;;;28.90;15.20;;;;;;;3.11;68.64;99657.94;4450927;32;33979;-59
2022/04/21 04:37:49;;;;;;;23.98;14.75;;;;;;;3.00;69.15;99653.72;4453063;32;33694;-59
2022/04/21 04:40:17;;;;;;;28.58;14.87;;;;;;;3.00;69.50;99657.97;4451413;32;33844;-58
2022/04/21 04:42:44;;;;;;;27.25;14.77;;;;;;;3.03;69.37;99663.28;4452371;32;34556;-60
2022/04/21 04:48:01;;;;;;;28.85;17.15;;;;;;;5.34;61.76;99654.06;4452140;32;33637;-59
2022/04/21 04:50:29;;;;;;;36.50;19.62;;;;;;;4.86;62.34;99658.72;4453774;32;35222;-60
2022/04/21 04:52:58;;;;;;;34.10;20.48;;;;;;;3.83;66.42;99668.94;4453156;32;32153;-59
2022/04/21 04:55:26;;;;;;;34.80;20.00;;;;;;;3.66;67.46;99660.94;4440379;32;33515;-59
2022/04/21 04:57:54;;;;;;;35.25;19.85;;;;;;;3.83;67.35;99659.56;4453226;32;33903;-59
2022/04/21 05:00:24;;;;;;;31.33;17.45;;;;;;;4.33;65.50;99658.66;4439173;32;33915;-59
2022/04/21 05:02:52;;;;;;;26.52;15.98;;;;;;;4.27;65.28;99658.25;4449260;32;34033;-59
2022/04/21 05:05:19;;;;;;;27.42;15.18;;;;;;;4.28;64.94;99667.72;4452003;32;33647;-59
2022/04/21 05:07:47;;;;;;;26.08;15.02;;;;;;;4.10;65.80;99670.81;4450821;32;33908;-59
2022/04/21 05:10:19;;;;;;;23.70;13.30;;;;;;;4.70;64.47;99663.66;4453399;32;34120;-59
2022/04/21 05:12:47;;;;;;;24.45;14.93;;;;;;;5.35;62.33;99665.22;4454213;32;33698;-59
2022/04/21 05:15:15;;;;;;;27.13;14.80;;;;;;;6.26;59.38;99664.00;4434775;32;34076;-60
2022/04/21 05:17:43;;;;;;;24.90;13.98;;;;;;;6.19;59.96;99667.00;4451803;32;34691;-59
2022/04/21 05:20:26;;;;;;;20.58;12.68;;;;;;;6.63;59.22;99666.16;4452111;32;32528;-59
2022/04/21 05:23:04;;;;;;;24.15;13.20;;;;;;;6.65;58.68;99664.56;4438615;32;33500;-59
2022/04/21 05:25:36;;;;;;;24.35;13.85;;;;;;;5.76;62.02;99659.22;4452270;32;33934;-59
2022/04/21 05:28:05;;;;;;;21.17;12.82;;;;;;;6.67;59.48;99657.81;4450635;32;34599;-59
2022/04/21 05:33:24;;;;;;;19.95;11.57;;;;;;;7.41;56.71;99651.66;4450646;32;33757;-59
2022/04/21 05:35:54;;;;;;;20.73;12.48;;;;;;;7.60;56.20;99650.97;4455000;32;33832;-59
2022/04/21 05:38:23;;;;;;;23.87;13.20;;;;;;;7.70;56.04;99649.78;4454204;32;34511;-59
2022/04/21 05:40:52;;;;;;;21.80;13.45;;;;;;;6.10;60.59;99647.66;4453549;32;33633;-59
2022/04/21 05:43:21;;;;;;;20.25;13.02;;;;;;;6.03;61.50;99648.06;4453645;32;34198;-58
2022/04/21 05:45:49;;;;;;;22.10;13.25;;;;;;;6.94;59.36;99652.47;4438497;32;33325;-60
2022/04/21 05:48:17;;;;;;;24.58;12.68;;;;;;;7.84;56.23;99639.41;4451428;32;33788;-60
2022/04/21 05:50:48;;;;;;;22.08;13.25;;;;;;;8.14;55.63;99639.22;4449161;32;34032;-60
2022/04/21 05:53:23;;;;;;;20.77;12.07;;;;;;;8.26;55.12;99646.69;4454863;32;33635;-59
2022/04/21 05:55:51;;;;;;;18.98;12.63;;;;;;;6.99;58.71;99651.03;4452253;32;34612;-58
2022/04/21 05:58:20;;;;;;;22.23;13.43;;;;;;;6.91;58.35;99647.12;4453543;32;34001;-59
2022/04/21 06:00:48;;;;;;;21.23;13.88;;;;;;;7.02;58.75;99651.22;4438947;32;34182;-59
2022/04/21 06:03:22;;;;;;;23.33;13.02;;;;;;;7.20;56.96;99647.06;4452908;32;33410;-59
2022/04/21 06:05:50;;;;;;;21.77;12.57;;;;;;;7.28;56.72;99643.25;4452589;32;33743;-59
2022/04/21 06:08:18;;;;;;;21.33;12.48;;;;;;;7.24;56.65;99633.59;4450958;32;34738;-59
2022/04/21 06:10:46;;;;;;;18.92;13.27;;;;;;;7.79;54.65;99639.94;4444930;32;34681;-60
2022/04/21 06:13:15;;;;;;;22.10;12.10;;;;;;;8.43;52.08;99635.56;4430524;32;33742;-61
2022/04/21 06:15:43;;;;;;;19.70;12.60;;;;;;;8.32;52.02;99634.09;4449803;32;33726;-60
2022/04/21 06:18:11;;;;;;;21.33;12.27;;;;;;;8.36;51.76;99641.19;4453536;32;34680;-59
2022/04/21 06:20:40;;;;;;;19.50;11.90;;;;;;;8.76;51.56;99638.06;4453622;32;33956;-61
2022/04/21 06:23:08;;;;;;;18.20;11.85;;;;;;;9.67;50.54;99638.88;4452017;32;34374;-59
2022/04/21 06:25:42;;;;;;;18.35;11.23;;;;;;;8.81;51.52;99644.34;4447958;32;34567;-62
2022/04/21 06:28:10;;;;;;;20.10;12.10;;;;;;;8.89;51.40;99636.09;4451782;32;33330;-61
2022/04/21 06:30:38;;;;;;;18.30;10.75;;;;;;;9.55;50.42;99632.34;4453532;32;34530;-61
2022/04/21 06:33:06;;;;;;;16.40;10.52;;;;;;;9.49;49.83;99628.59;4433850;32;34174;-61
2022/04/21 06:35:34;;;;;;;12.90;8.63;;;;;;;10.68;48.66;99633.00;4452285;32;34433;-60
2022/04/21 06:38:01;;;;;;;14.00;9.55;;;;;;;10.25;48.08;99625.94;4452204;32;34519;-60
2022/04/21 06:40:29;;;;;;;15.68;9.35;;;;;;;10.96;46.76;99619.44;4453573;32;32720;-61
2022/04/21 06:42:58;;;;;;;10.93;7.43;;;;;;;11.72;45.76;99620.63;4446872;32;33750;-59
2022/04/21 06:48:20;;;;;;;12.60;7.70;;;;;;;12.12;43.57;99618.63;4430673;32;33715;-61
2022/04/21 06:50:49;;;;;;;12.80;7.75;;;;;;;12.16;44.61;99615.31;4453532;32;33986;-59
2022/04/21 06:53:16;;;;;;;11.77;7.80;;;;;;;11.37;44.54;99614.09;4436356;32;33346;-61
2022/04/21 06:55:44;;;;;;;12.75;7.95;;;;;;;11.04;45.70;99611.09;4452398;32;33916;-59
2022/04/21 06:58:12;;;;;;;10.07;6.18;;;;;;;10.97;45.14;99612.53;4449897;32;34042;-61
2022/04/21 07:00:39;;;;;;;9.93;6.70;;;;;;;11.55;44.65;99616.50;4439757;32;34833;-62
2022/04/21 07:03:08;;;;;;;10.07;6.57;;;;;;;11.06;45.90;99612.91;4453722;32;33652;-59
2022/04/21 07:05:36;;;;;;;10.27;5.90;;;;;;;12.25;43.74;99607.84;4452691;32;33769;-60
2022/04/21 07:08:04;;;;;;;8.50;4.82;;;;;;;12.18;42.75;99611.06;4452337;32;34495;-59
2022/04/21 07:10:32;;;;;;;7.45;5.10;;;;;;;12.52;42.45;99607.91;4451167;32;34843;-60
2022/04/21 07:13:10;;;;;;;6.43;4.60;;;;;;;12.41;43.61;99598.00;4453647;32;33277;-61
2022/04/21 07:15:40;;;;;;;8.20;5.12;;;;;;;12.44;41.92;99595.47;4444526;32;33681;-61
2022/04/21 07:18:09;;;;;;;7.07;3.92;;;;;;;12.91;40.94;99601.38;4434862;32;33803;-60
2022/04/21 07:20:37;;;;;;;7.03;3.80;;;;;;;12.25;41.46;99607.84;4434708;32;32863;-61
2022/04/21 07:23:05;;;;;;;6.87;4.12;;;;;;;13.43;39.24;99603.03;4448833;32;33551;-60
2022/04/21 07:25:34;;;;;;;7.85;4.35;;;;;;;12.62;40.54;99593.50;4436392;32;34616;-61
2022/04/21 07:28:01;;;;;;;5.85;3.70;;;;;;;13.47;39.78;99602.28;4448563;32;34298;-59
2022/04/21 07:30:29;;;;;;;5.12;3.55;;;;;;;12.25;39.28;99610.47;4448928;32;33996;-60
2022/04/21 07:32:57;;;;;;;6.70;3.70;;;;;;;12.57;39.86;99600.25;4449973;32;33735;-59
2022/04/21 07:35:29;;;;;;;8.80;3.30;;;;;;;12.59;39.73;99601.19;4449466;32;34645;-60
2022/04/21 07:38:00;;;;;;;5.32;3.30;;;;;;;12.83;38.94;99598.53;4450680;32;34649;-61
2022/04/21 07:40:28;;;;;;;6.85;4.07;;;;;;;12.81;38.66;99604.53;4449406;32;34856;-59
2022/04/21 07:42:58;;;;;;;6.10;3.60;;;;;;;12.79;38.48;99607.94;4449223;32;33671;-58
2022/04/21 07:45:27;;;;;;;7.65;3.90;;;;;;;13.51;37.63;99596.34;4450366;32;33893;-59
2022/04/21 07:47:54;;;;;;;7.37;4.12;;;;;;;13.90;36.22;99590.50;4449157;32;33543;-59
2022/04/21 07:50:24;;;;;;;6.40;3.90;;;;;;;13.69;37.57;99600.31;4449876;32;35023;-59
2022/04/21 07:53:14;;;;;;;6.62;3.80;;;;;;;14.35;36.04;99597.81;4452482;32;34458;-61
2022/04/21 07:55:46;;;;;;;7.18;4.47;;;;;;;15.23;34.02;99596.50;4453705;32;32943;-60
2022/04/21 07:58:14;;;;;;;5.87;4.15;;;;;;;15.87;32.78;99587.44;4454375;32;34536;-59
2022/04/21 08:00:42;;;;;;;8.75;3.95;;;;;;;15.44;32.47;99599.56;4453789;32;34430;-61
2022/04/21 08:03:15;;;;;;;6.18;4.15;;;;;;;16.11;31.00;99591.41;4447110;32;32799;-60
2022/04/21 08:05:45;;;;;;;6.30;3.75;;;;;;;16.25;32.30;99584.69;4453823;32;34615;-60
2022/04/21 08:08:13;;;;;;;5.82;3.90;;;;;;;15.90;32.90;99587.50;4453177;32;33881;-61
2022/04/21 08:10:41;;;;;;;6.90;4.62;;;;;;;15.90;33.33;99584.91;4438634;32;34865;-59
2022/04/21 08:13:09;;;;;;;6.70;4.22;;;;;;;15.77;33.04;99592.47;4453521;32;33611;-61
2022/04/21 08:15:36;;;;;;;6.95;3.83;;;;;;;16.35;31.24;99579.63;4443431;32;33895;-59
2022/04/21 08:18:05;;;;;;;5.65;3.92;;;;;;;15.96;32.12;99588.50;4454583;32;33879;-61
2022/04/21 08:20:37;;;;;;;8.15;4.25;;;;;;;16.09;32.18;99598.34;4451245;32;35007;-60
2022/04/21 08:23:04;;;;;;;7.10;4.40;;;;;;;15.60;33.37;99595.56;4438824;32;33542;-60
2022/04/21 08:34:16;;;;;;;8.63;4.70;;;;;;;15.40;32.99;99587.31;4442019;32;33612;-61
2022/04/21 08:36:51;;;;;;;6.15;4.30;;;;;;;15.09;33.72;99591.84;4454135;32;34683;-59
2022/04/21 08:39:19;;;;;;;6.60;4.00;;;;;;;15.66;34.24;99598.28;4428663;32;34771;-61
2022/04/21 08:41:48;;;;;;;7.90;4.25;;;;;;;16.00;32.73;99598.16;4451164;32;34297;-59
2022/04/21 08:44:19;;;;;;;7.30;4.45;;;;;;;15.08;33.88;99590.06;4450785;32;32933;-61
2022/04/21 08:46:48;;;;;;;6.12;4.35;;;;;;;15.13;33.55;99587.56;4444887;32;33682;-61
2022/04/21 08:49:19;;;;;;;6.12;3.78;;;;;;;14.77;33.53;99598.88;4442834;32;33587;-59
2022/04/21 08:51:47;;;;;;;8.13;4.28;;;;;;;14.72;33.22;99590.97;4450458;32;34010;-59
2022/04/21 08:54:15;;;;;;;7.15;3.40;;;;;;;14.65;31.87;99589.03;4454927;32;33832;-60
2022/04/21 08:56:44;;;;;;;7.37;3.85;;;;;;;14.99;32.89;99595.09;4432789;32;33788;-60
2022/04/21 08:59:12;;;;;;;5.72;3.90;;;;;;;14.65;32.77;99609.91;4431656;32;33721;-61
2022/04/21 09:01:40;;;;;;;6.22;4.20;;;;;;;14.89;30.52;99600.91;4450994;32;34822;-59
2022/04/21 09:04:07;;;;;;;6.68;3.80;;;;;;;14.82;32.17;99612.06;4452261;32;33676;-59
2022/04/21 09:06:38;;;;;;;6.72;3.62;;;;;;;15.08;31.52;99595.28;4452751;32;33694;-59
2022/04/21 09:09:12;;;;;;;8.63;4.47;;;;;;;16.16;30.30;99597.59;4444340;32;33947;-60
2022/04/21 09:11:43;;;;;;;6.55;4.68;;;;;;;15.69;33.15;99595.75;4449119;32;34125;-59
2022/04/21 09:14:16;;;;;;;8.20;5.18;;;;;;;15.96;33.50;99601.56;4450741;32;33665;-59
2022/04/21 09:16:44;;;;;;;10.70;4.40;;;;;;;16.02;30.87;99599.06;4451883;32;34603;-60
2022/04/21 09:19:14;;;;;;;6.80;4.87;;;;;;;15.97;31.23;99595.47;4451130;32;33633;-60
2022/04/21 09:21:41;;;;;;;8.55;5.47;;;;;;;15.88;31.53;99597.06;4451467;32;34087;-60
2022/04/21 09:24:22;;;;;;;6.15;4.15;;;;;;;15.46;32.43;99599.63;4451388;32;33772;-59
2022/04/21 09:26:50;;;;;;;7.10;4.28;;;;;;;15.62;31.68;99598.22;4452522;32;33582;-59
2022/04/21 09:29:29;;;;;;;7.37;4.35;;;;;;;15.42;31.11;99601.28;4436599;32;33911;-61
2022/04/21 09:31:59;;;;;;;8.43;4.55;;;;;;;15.66;32.34;99600.03;4442445;32;34717;-59
2022/04/21 09:34:35;;;;;;;8.15;4.40;;;;;;;15.74;31.13;99598.47;4451557;32;33756;-61
2022/04/21 09:37:10;;;;;;;7.85;4.60;;;;;;;16.16;31.15;99600.19;4454683;32;33678;-60
2022/04/21 09:39:39;;;;;;;6.70;4.68;;;;;;;15.92;29.48;99598.88;4453549;32;34480;-59
2022/04/21 09:42:07;;;;;;;8.50;5.43;;;;;;;15.44;31.97;99609.16;4446534;32;33940;-59
2022/04/21 09:47:32;;;;;;;6.72;5.20;;;;;;;15.33;32.87;99595.84;4454485;32;33708;-61
2022/04/21 09:50:13;;;;;;;8.93;4.97;;;;;;;15.28;32.35;99594.88;4451780;32;34435;-60
2022/04/21 09:52:47;;;;;;;6.30;4.55;;;;;;;15.88;33.31;99589.22;4445976;32;33835;-60
2022/04/21 09:55:41;;;;;;;7.95;5.00;;;;;;;16.97;31.92;99585.06;4452536;32;33697;-60
2022/04/21 09:58:10;;;;;;;8.75;4.35;;;;;;;16.69;31.76;99575.88;4449633;32;32956;-62
2022/04/21 10:00:39;;;;;;;6.75;3.78;;;;;;;16.60;32.67;99581.81;4452831;32;34052;-59
2022/04/21 10:03:08;;;;;;;7.47;4.37;;;;;;;17.22;31.07;99574.97;4454578;32;34970;-60
2022/04/21 10:05:37;;;;;;;7.43;4.50;;;;;;;18.00;29.21;99567.22;4439680;32;33420;-61
2022/04/21 10:08:07;;;;;;;7.12;4.47;;;;;;;16.77;30.65;99560.31;4437865;32;32392;-61
2022/04/21 10:10:35;;;;;;;8.18;4.05;;;;;;;16.27;31.60;99569.91;4454543;32;34059;-59
2022/04/21 10:13:05;;;;;;;6.37;3.72;;;;;;;16.12;30.63;99574.84;4452251;32;34263;-59
2022/04/21 10:15:34;;;;;;;6.10;4.03;;;;;;;17.14;27.87;99568.75;4453121;32;34206;-62
2022/04/21 10:18:02;;;;;;;7.20;2.95;;;;;;;17.78;29.68;99572.19;4431379;32;34603;-63
2022/04/21 10:20:30;;;;;;;5.97;4.22;;;;;;;17.27;28.31;99570.69;4433552;32;34514;-61
2022/04/21 10:23:00;;;;;;;8.60;4.97;;;;;;;16.58;29.33;99575.69;4450737;32;34438;-59
2022/04/21 10:25:39;;;;;;;7.20;4.47;;;;;;;16.68;30.03;99572.34;4435954;32;34340;-62
2022/04/21 10:28:38;;;;;;;6.87;4.43;;;;;;;16.98;28.03;99565.00;4437536;32;33697;-59
2022/04/21 10:31:25;;;;;;;9.27;5.55;;;;;;;16.46;30.54;99559.78;4452302;32;33867;-62
2022/04/21 10:33:54;;;;;;;7.37;4.35;;;;;;;16.28;30.46;99556.00;4450987;32;34246;-62
2022/04/21 10:36:47;;;;;;;7.90;4.78;;;;;;;16.75;31.02;99567.25;4454751;32;34242;-62
2022/04/21 10:39:18;;;;;;;7.22;4.47;;;;;;;17.16;30.81;99556.56;4439701;32;34544;-62
2022/04/21 10:41:45;;;;;;;6.50;4.53;;;;;;;16.89;29.02;99557.91;4450739;32;33856;-59
2022/04/21 10:44:26;;;;;;;6.15;4.28;;;;;;;17.76;28.53;99546.84;4439262;32;34124;-60
2022/04/21 10:47:32;;;;;;;6.82;4.57;;;;;;;17.79;28.76;99555.62;4436793;32;33126;-59
2022/04/21 10:50:13;;;;;;;8.15;4.87;;;;;;;16.82;29.70;99556.03;4453184;32;32356;-59
2022/04/21 10:58:34;;;;;;;6.62;4.43;;;;;;;17.22;29.17;99535.69;4452679;32;34393;-60
2022/04/21 11:01:12;;;;;;;8.02;4.97;;;;;;;17.62;28.86;99529.22;4450251;32;33705;-60
2022/04/21 11:03:41;;;;;;;9.32;4.50;;;;;;;16.89;29.79;99534.34;4451232;32;33849;-61
2022/04/21 11:06:13;;;;;;;8.32;5.10;;;;;;;17.66;30.84;99532.78;4452123;32;34268;-61
2022/04/21 11:08:44;;;;;;;7.35;4.78;;;;;;;17.69;29.21;99525.84;4451204;32;33743;-59
2022/04/21 11:11:13;;;;;;;7.82;4.87;;;;;;;17.90;29.08;99515.59;4450990;32;33373;-60
2022/04/21 11:13:52;;;;;;;9.35;5.25;;;;;;;17.54;30.97;99523.03;4434456;32;34707;-59
2022/04/21 11:16:41;;;;;;;7.30;4.57;;;;;;;18.21;29.70;99525.50;4451407;32;34101;-59
2022/04/21 11:19:29;;;;;;;7.93;4.90;;;;;;;18.46;28.68;99515.25;4446416;32;34294;-62
2022/04/21 11:21:59;;;;;;;9.13;5.50;;;;;;;18.85;28.84;99517.34;4453781;32;33730;-60
2022/04/21 11:24:27;;;;;;;5.75;4.65;;;;;;;17.97;29.59;99506.94;4453075;32;32919;-62
2022/04/21 11:26:58;;;;;;;9.90;5.05;;;;;;;17.24;30.12;99523.50;4452264;32;33999;-61
2022/04/21 11:29:26;;;;;;;7.57;4.78;;;;;;;16.81;31.67;99525.50;4448460;32;33643;-61
2022/04/21 11:31:55;;;;;;;6.70;4.37;;;;;;;16.60;30.20;99510.34;4452935;32;33576;-60
2022/04/21 11:34:25;;;;;;;6.93;4.32;;;;;;;17.45;31.20;99515.94;4452869;32;33628;-61
2022/04/21 11:36:53;;;;;;;6.15;4.12;;;;;;;18.50;30.25;99506.53;4452244;32;34180;-62
2022/04/21 11:39:21;;;;;;;7.70;4.65;;;;;;;17.94;30.80;99504.28;4447393;32;33512;-61
2022/04/21 11:41:49;;;;;;;7.87;4.50;;;;;;;17.44;31.49;99503.72;4452809;32;34626;-61
2022/04/21 11:44:25;;;;;;;8.15;5.00;;;;;;;17.62;30.68;99510.91;4426012;32;34679;-60
2022/04/21 11:46:53;;;;;;;7.35;4.70;;;;;;;17.68;28.92;99499.63;4452642;32;34875;-62
2022/04/21 11:49:21;;;;;;;6.87;5.28;;;;;;;18.63;30.40;99492.63;4450687;32;33521;-60
2022/04/21 11:51:52;;;;;;;6.85;4.28;;;;;;;17.35;30.03;99498.34;4437982;32;33835;-61
2022/04/21 11:54:20;;;;;;;6.60;4.40;;;;;;;17.58;31.15;99495.16;4453306;32;33931;-59
2022/04/21 11:56:51;;;;;;;9.70;5.10;;;;;;;17.62;30.75;99503.03;4453171;32;34232;-61
2022/04/21 11:59:19;;;;;;;6.28;4.82;;;;;;;17.96;28.08;99492.06;4452241;32;33721;-60
2022/04/21 12:07:21;;;;;;;8.70;4.62;;;;;;;17.69;29.58;99476.06;4450665;32;34058;-59
2022/04/21 12:09:50;;;;;;;7.10;4.68;;;;;;;17.38;28.90;99472.19;4450866;32;33531;-59
2022/04/21 12:12:20;;;;;;;6.37;4.72;;;;;;;18.00;29.26;99470.25;4451769;32;34587;-59
2022/04/21 12:14:49;;;;;;;7.12;4.50;;;;;;;18.65;28.05;99475.16;4453745;32;34742;-62
2022/04/21 12:17:17;;;;;;;8.40;4.97;;;;;;;18.05;30.33;99471.19;4449019;32;34847;-60
2022/04/21 12:19:46;;;;;;;11.20;5.18;;;;;;;17.85;29.61;99463.16;4451641;32;33638;-59
2022/04/21 12:22:19;;;;;;;6.68;4.43;;;;;;;17.77;29.79;99465.66;4438693;32;33838;-62
2022/04/21 12:24:51;;;;;;;7.43;5.00;;;;;;;18.69;29.02;99464.69;4435038;32;33692;-62
2022/04/21 12:27:24;;;;;;;7.03;4.62;;;;;;;18.74;26.61;99456.00;4455668;32;34175;-59
2022/04/21 12:29:59;;;;;;;6.72;4.75;;;;;;;18.51;28.90;99460.22;4438586;32;32804;-60